Time;durP1;ratioP1;P1;durP2;ratioP2;P2;SDS_P1;SDS_P2;PMS_P1;PMS_P2;Temp;Humidity;BMP_temperature;BMP_pressure;BME280_temperature;BME280_humidity;BME280_pressure;Samples;Min_cycle;Max_cycle;Signal;HPM_P1;HPM_P2
2023/01/05 00:01:49;;;;;;;99.38;17.00;;;;;;;22.28;49.14;100787.22;21004182;28;20048;-63
2023/01/05 00:22:31;;;;;;;93.82;16.55;;;;;;;22.27;48.73;100729.00;21002906;28;20376;-62
2023/01/05 00:32:32;;;;;;;79.10;15.32;;;;;;;22.28;48.68;100748.19;21001309;28;20079;-62
2023/01/05 00:42:34;;;;;;;87.20;14.80;;;;;;;22.07;48.49;100691.81;21000205;28;20086;-63
2023/01/05 00:52:35;;;;;;;111.07;18.10;;;;;;;22.17;48.61;100695.63;20998705;28;20040;-63
2023/01/05 01:02:37;;;;;;;155.07;26.25;;;;;;;22.09;49.23;100694.31;20999206;28;20557;-65
2023/01/05 01:12:38;;;;;;;231.35;33.28;;;;;;;22.28;50.21;100728.69;21034199;28;20070;-64
2023/01/05 01:22:39;;;;;;;206.88;33.10;;;;;;;22.37;50.94;100737.25;21082223;28;20043;-63
2023/01/05 01:32:41;;;;;;;176.57;29.23;;;;;;;22.39;51.80;100748.09;21081641;28;20059;-64
2023/01/05 01:42:48;;;;;;;174.35;29.17;;;;;;;22.41;51.77;100768.16;21080534;28;20055;-63
2023/01/05 01:52:54;;;;;;;174.98;25.73;;;;;;;22.43;51.69;100765.88;21080050;28;20097;-62
2023/01/05 02:02:55;;;;;;;150.65;24.35;;;;;;;22.46;51.64;100765.31;21078878;28;20537;-63
2023/01/05 02:13:29;;;;;;;122.93;22.15;;;;;;;22.18;51.22;100753.88;21078644;28;20032;-63
2023/01/05 02:23:57;;;;;;;104.93;20.58;;;;;;;22.42;51.34;100787.38;21077984;28;20336;-63
2023/01/05 02:34:16;;;;;;;109.97;20.55;;;;;;;22.42;50.98;100780.97;21076982;28;20442;-63
2023/01/05 02:44:19;;;;;;;81.53;17.75;;;;;;;22.44;51.33;100778.69;21071168;28;20561;-63
2023/01/05 02:54:25;;;;;;;75.90;15.55;;;;;;;22.27;51.30;100757.69;21036834;28;20532;-63
2023/01/05 03:04:29;;;;;;;70.70;14.95;;;;;;;22.44;50.97;100792.63;21006791;28;20024;-63
2023/01/05 03:14:41;;;;;;;74.40;15.27;;;;;;;22.42;50.97;100767.03;21074363;28;20043;-63
2023/01/05 03:35:36;;;;;;;65.55;14.75;;;;;;;22.40;50.80;100795.19;21076473;28;20032;-64
2023/01/05 03:45:45;;;;;;;47.10;13.00;;;;;;;22.33;50.75;100794.72;21076917;28;20044;-62
2023/01/05 03:55:46;;;;;;;54.45;12.65;;;;;;;22.37;50.51;100817.25;21089463;28;20039;-62
2023/01/05 04:05:47;;;;;;;57.17;12.68;;;;;;;22.25;50.71;100812.88;21084044;28;20460;-63
2023/01/05 04:15:51;;;;;;;45.38;10.55;;;;;;;22.26;50.56;100805.34;21087243;28;20028;-63
2023/01/05 04:25:55;;;;;;;41.17;11.20;;;;;;;22.33;50.61;100820.63;21087677;28;20032;-62
2023/01/05 04:35:56;;;;;;;39.72;11.93;;;;;;;22.31;50.59;100834.03;21086071;28;20553;-62
2023/01/05 04:46:00;;;;;;;36.22;9.32;;;;;;;22.26;50.33;100836.03;21083991;28;20051;-62
2023/01/05 04:56:05;;;;;;;34.80;8.82;;;;;;;22.33;50.26;100851.28;21083869;28;20055;-61
2023/01/05 05:06:06;;;;;;;24.05;7.80;;;;;;;22.37;51.01;100868.28;21084303;28;20059;-61
2023/01/05 05:16:10;;;;;;;30.60;9.15;;;;;;;22.23;51.25;100844.97;21083145;28;20032;-62
2023/01/05 05:26:12;;;;;;;26.15;9.20;;;;;;;22.39;51.48;100868.78;21082373;28;20471;-62
2023/01/05 05:36:19;;;;;;;21.55;8.05;;;;;;;22.41;52.47;100874.94;21081693;28;20491;-62
2023/01/05 05:46:23;;;;;;;21.27;7.13;;;;;;;22.41;52.08;100871.31;21080859;28;20044;-62
2023/01/05 05:56:27;;;;;;;20.08;6.72;;;;;;;22.41;51.84;100885.25;21080363;28;20040;-62
2023/01/05 06:06:29;;;;;;;12.85;6.82;;;;;;;22.36;52.74;100893.63;21079886;28;20360;-61
2023/01/05 06:16:33;;;;;;;19.98;8.73;;;;;;;22.44;52.74;100927.31;21037227;28;20041;-60
2023/01/05 06:26:34;;;;;;;21.52;8.82;;;;;;;22.40;51.64;100942.13;21063648;28;20491;-61
2023/01/05 06:36:36;;;;;;;22.27;8.10;;;;;;;22.40;51.90;100967.22;21069199;28;20052;-61
2023/01/05 06:46:40;;;;;;;22.98;8.60;;;;;;;22.42;52.04;100970.56;21066151;28;20048;-61
2023/01/05 06:56:41;;;;;;;21.00;7.88;;;;;;;22.41;51.70;100980.06;21072607;28;20044;-61
2023/01/05 07:06:43;;;;;;;15.93;7.82;;;;;;;22.39;51.41;100987.84;21067993;28;20054;-61
2023/01/05 07:16:44;;;;;;;19.50;7.63;;;;;;;22.37;51.25;100990.94;21070466;28;20074;-62
2023/01/05 07:26:45;;;;;;;19.15;7.82;;;;;;;22.38;51.23;101025.22;21080420;28;20055;-62
2023/01/05 07:36:48;;;;;;;13.80;7.05;;;;;;;22.18;51.26;101009.47;21091131;28;20040;-60
2023/01/05 07:46:49;;;;;;;15.25;7.50;;;;;;;22.14;51.12;101014.78;21089916;28;20052;-61
2023/01/05 07:56:51;;;;;;;11.40;6.28;;;;;;;22.35;51.33;101070.41;21089651;28;20036;-61
2023/01/05 08:06:52;;;;;;;10.90;6.80;;;;;;;22.33;50.99;101085.47;21088704;28;20048;-61
2023/01/05 08:16:54;;;;;;;15.40;6.47;;;;;;;22.31;50.94;101095.22;21088195;28;20036;-61
2023/01/05 08:26:55;;;;;;;9.63;6.30;;;;;;;22.10;50.86;101052.69;21087318;28;20124;-61
2023/01/05 08:36:56;;;;;;;10.85;6.20;;;;;;;22.30;50.63;101102.75;21083444;28;20040;-62
2023/01/05 08:46:58;;;;;;;9.32;6.22;;;;;;;22.27;50.81;101106.16;21085638;28;20032;-62
2023/01/05 08:57:00;;;;;;;15.18;6.00;;;;;;;22.24;50.62;101098.34;21084755;28;20039;-62
2023/01/05 09:07:01;;;;;;;11.18;6.05;;;;;;;21.58;50.63;101001.09;21084375;28;20048;-62
2023/01/05 09:17:02;;;;;;;6.75;5.03;;;;;;;22.21;50.40;101107.28;21082967;28;20036;-62
2023/01/05 09:27:06;;;;;;;9.95;5.10;;;;;;;22.20;50.33;101124.28;21082571;28;20380;-61
2023/01/05 09:37:10;;;;;;;8.13;5.38;;;;;;;22.19;50.46;101129.03;21079109;28;20055;-62
2023/01/05 09:47:17;;;;;;;8.05;5.30;;;;;;;22.18;50.29;101138.53;21079433;28;20036;-62
2023/01/05 09:57:22;;;;;;;9.52;5.22;;;;;;;22.04;50.22;101143.00;21078790;28;20541;-62
2023/01/05 10:07:49;;;;;;;8.82;5.28;;;;;;;22.13;50.15;101185.06;21079236;28;20024;-62
2023/01/05 10:17:50;;;;;;;7.72;4.53;;;;;;;22.15;50.20;101186.47;21069452;28;20048;-62
2023/01/05 10:28:34;;;;;;;6.55;4.53;;;;;;;22.12;49.96;101192.59;21075641;28;20044;-62
2023/01/05 10:39:17;;;;;;;8.18;4.80;;;;;;;22.18;50.11;101190.66;21075051;28;20101;-62
2023/01/05 10:49:31;;;;;;;6.85;4.30;;;;;;;22.20;49.90;101197.59;21071882;28;20040;-62
2023/01/05 10:59:33;;;;;;;6.05;4.57;;;;;;;22.17;49.85;101200.09;21071702;28;20071;-62
2023/01/05 11:09:42;;;;;;;7.57;4.75;;;;;;;22.11;49.66;101199.25;21071977;28;20036;-61
2023/01/05 11:19:50;;;;;;;4.55;3.90;;;;;;;22.13;49.35;101207.34;21073203;28;20040;-61
2023/01/05 11:30:24;;;;;;;6.30;4.40;;;;;;;22.05;49.63;101223.53;21071634;28;20036;-61
2023/01/05 11:40:30;;;;;;;5.65;4.35;;;;;;;22.10;49.77;101231.03;21071272;28;20101;-61
2023/01/05 11:50:46;;;;;;;4.80;4.18;;;;;;;22.04;49.54;101233.00;21070934;28;20036;-61
2023/01/05 12:01:06;;;;;;;5.13;3.58;;;;;;;22.08;49.53;101250.84;21062420;28;20036;-60
2023/01/05 12:11:18;;;;;;;5.53;4.70;;;;;;;22.06;49.43;101263.38;21066834;28;20044;-61
2023/01/05 12:21:24;;;;;;;5.55;3.70;;;;;;;22.06;49.60;101268.94;21081630;28;20097;-61
2023/01/05 12:31:35;;;;;;;4.03;3.50;;;;;;;22.09;49.31;101268.41;21080722;28;20089;-61
2023/01/05 12:41:51;;;;;;;4.85;3.17;;;;;;;22.10;49.21;101275.63;21077657;28;20052;-61
2023/01/05 12:52:08;;;;;;;5.45;3.67;;;;;;;22.11;49.37;101294.03;21067396;28;20106;-61
2023/01/05 13:02:33;;;;;;;4.38;3.65;;;;;;;22.12;49.35;101318.00;21078014;28;20101;-61
2023/01/05 13:12:36;;;;;;;4.82;3.13;;;;;;;22.14;49.56;101326.94;21076084;28;20487;-61
2023/01/05 13:22:42;;;;;;;4.18;3.53;;;;;;;22.15;49.42;101356.47;21072333;28;20040;-61
2023/01/05 13:33:26;;;;;;;3.47;3.17;;;;;;;22.12;48.98;101342.25;21075477;28;20438;-61
2023/01/05 13:43:51;;;;;;;3.58;3.28;;;;;;;22.14;49.02;101354.81;21079633;28;20040;-63
2023/01/05 13:54:01;;;;;;;3.40;3.08;;;;;;;22.09;49.07;101346.44;21071185;28;20109;-62
2023/01/05 14:04:05;;;;;;;3.50;3.20;;;;;;;22.14;48.92;101370.72;21078774;28;20044;-61
2023/01/05 14:14:27;;;;;;;4.13;3.00;;;;;;;22.02;48.92;101362.59;21070152;28;20044;-61
2023/01/05 14:24:38;;;;;;;3.38;2.30;;;;;;;22.15;48.45;101387.16;21078260;28;20089;-61
2023/01/05 14:34:48;;;;;;;2.95;2.65;;;;;;;22.04;48.32;101385.44;21077170;28;20414;-61
2023/01/05 14:44:51;;;;;;;5.43;2.47;;;;;;;22.16;47.94;101402.75;21077295;28;20036;-61
2023/01/05 14:54:55;;;;;;;5.30;2.60;;;;;;;22.15;47.94;101401.09;21077676;28;20113;-61
2023/01/05 15:05:05;;;;;;;2.50;2.30;;;;;;;22.14;47.75;101426.47;21076246;28;20047;-61
2023/01/05 15:15:31;;;;;;;3.38;2.10;;;;;;;22.10;47.25;101428.91;21071629;28;20372;-61
2023/01/05 15:25:38;;;;;;;2.28;2.08;;;;;;;22.14;47.15;101421.72;21075165;28;20052;-60
2023/01/05 15:35:56;;;;;;;2.40;1.88;;;;;;;22.09;47.31;101413.31;21074956;28;20036;-60
2023/01/05 15:45:59;;;;;;;3.10;2.00;;;;;;;22.06;47.35;101403.56;21084835;28;20045;-60
2023/01/05 15:56:01;;;;;;;2.60;2.17;;;;;;;22.14;47.48;101404.16;21089715;28;20048;-60
2023/01/05 16:06:10;;;;;;;2.03;1.70;;;;;;;22.11;47.34;101387.94;21088779;28;20101;-60
2023/01/05 16:16:43;;;;;;;2.60;2.00;;;;;;;22.06;47.41;101364.53;21086666;28;20044;-60
2023/01/05 16:26:50;;;;;;;2.47;1.85;;;;;;;22.10;47.28;101356.47;21086998;28;20044;-60
2023/01/05 16:37:04;;;;;;;2.35;2.15;;;;;;;22.05;47.22;101348.09;21086540;28;20028;-59
2023/01/05 16:47:08;;;;;;;2.28;2.08;;;;;;;22.10;47.36;101342.53;21085708;28;20074;-59
2023/01/05 16:57:30;;;;;;;4.40;2.42;;;;;;;22.03;46.93;101330.81;21084275;28;20024;-59
2023/01/05 17:07:33;;;;;;;2.78;2.10;;;;;;;22.07;47.01;101315.19;21084728;28;20048;-60
2023/01/05 17:17:34;;;;;;;2.85;2.10;;;;;;;22.07;46.81;101315.19;21078536;28;20040;-60
2023/01/05 17:27:41;;;;;;;4.93;2.40;;;;;;;22.09;47.17;101318.56;21079194;28;20403;-60
2023/01/05 17:37:45;;;;;;;7.80;3.00;;;;;;;22.03;47.65;101287.06;21078072;28;20109;-59
2023/01/05 17:47:47;;;;;;;9.15;2.85;;;;;;;22.08;47.43;101272.28;21079121;28;20039;-59
2023/01/05 17:57:48;;;;;;;16.05;3.83;;;;;;;22.07;47.56;101259.47;21071439;28;20036;-60
2023/01/05 18:07:50;;;;;;;12.60;3.28;;;;;;;22.09;47.75;101257.25;21064897;28;20051;-59
2023/01/05 18:17:55;;;;;;;11.32;4.00;;;;;;;22.10;47.68;101264.47;21052937;28;20043;-60
2023/01/05 18:27:56;;;;;;;12.07;3.50;;;;;;;22.15;47.49;101250.56;21077341;28;20140;-60
2023/01/05 18:38:02;;;;;;;17.33;3.90;;;;;;;22.15;47.23;101239.41;21072744;28;20048;-60
2023/01/05 18:48:03;;;;;;;29.00;5.00;;;;;;;22.19;47.53;101218.22;21079583;28;20118;-60
2023/01/05 18:58:05;;;;;;;34.67;5.10;;;;;;;22.14;47.73;101204.31;21081206;28;20070;-60
2023/01/05 19:08:08;;;;;;;42.33;5.78;;;;;;;22.24;47.98;101181.13;21072429;28;20033;-60
2023/01/05 19:18:09;;;;;;;36.95;6.80;;;;;;;22.22;47.91;101166.63;21080420;28;20036;-62
2023/01/05 19:28:11;;;;;;;33.45;5.85;;;;;;;22.26;48.04;101157.41;21083725;28;20043;-59
2023/01/05 19:38:18;;;;;;;49.55;7.45;;;;;;;22.21;48.12;101126.78;21095021;28;20044;-59
2023/01/05 19:48:22;;;;;;;57.70;7.70;;;;;;;22.37;47.65;101154.59;21083624;28;20048;-60
2023/01/05 19:58:24;;;;;;;90.65;10.93;;;;;;;22.39;48.08;101155.97;21071929;28;20040;-60
2023/01/05 20:08:25;;;;;;;79.10;10.60;;;;;;;22.41;48.69;101144.56;21078107;28;20044;-60
2023/01/05 20:18:26;;;;;;;49.28;8.55;;;;;;;22.40;48.66;101145.66;21054075;28;20036;-61
2023/01/05 20:28:28;;;;;;;56.70;8.00;;;;;;;22.39;48.76;101133.66;21073736;28;20066;-61
2023/01/05 20:38:35;;;;;;;49.35;7.80;;;;;;;22.44;48.83;101152.31;21064792;28;20113;-60
2023/01/05 20:48:39;;;;;;;41.17;6.78;;;;;;;22.45;49.11;101148.41;21071934;28;20051;-60
2023/01/05 20:58:42;;;;;;;45.22;8.15;;;;;;;22.46;49.19;101166.84;21081749;28;20044;-60
2023/01/05 21:08:47;;;;;;;46.50;7.07;;;;;;;22.48;49.38;101175.75;21057553;28;20391;-60
2023/01/05 21:18:49;;;;;;;34.22;6.07;;;;;;;22.51;48.57;101177.97;21081845;28;20040;-60
2023/01/05 21:28:52;;;;;;;25.77;5.65;;;;;;;22.54;48.69;101175.44;21065929;28;20040;-61
2023/01/05 21:39:07;;;;;;;32.58;5.32;;;;;;;22.58;48.88;101181.25;21058418;28;20117;-60
2023/01/05 21:49:09;;;;;;;25.27;5.45;;;;;;;22.58;48.44;101176.50;21082547;28;20047;-60
2023/01/05 21:59:10;;;;;;;26.63;5.47;;;;;;;22.61;47.95;101169.53;21068052;27;20039;-61
2023/01/05 22:09:12;;;;;;;18.50;4.05;;;;;;;22.58;47.94;101161.75;21057005;28;20495;-59
2023/01/05 22:19:13;;;;;;;21.85;4.70;;;;;;;22.51;47.93;101161.22;21073394;28;20078;-60
2023/01/05 22:29:15;;;;;;;13.57;3.97;;;;;;;22.62;48.04;101174.00;21077411;28;20399;-60
2023/01/05 22:39:17;;;;;;;17.60;3.78;;;;;;;22.62;47.84;101181.53;21052957;28;20044;-59
2023/01/05 22:49:18;;;;;;;21.30;5.07;;;;;;;22.63;48.63;101191.56;21066240;28;20556;-59
2023/01/05 22:59:20;;;;;;;44.65;7.15;;;;;;;22.71;49.50;101196.53;21066343;28;20106;-60
2023/01/05 23:09:22;;;;;;;30.42;6.00;;;;;;;22.68;49.64;101191.53;21019953;28;20099;-60
2023/01/05 23:19:23;;;;;;;29.27;5.75;;;;;;;21.90;48.68;101075.91;21027523;28;20041;-60
2023/01/05 23:29:24;;;;;;;21.17;4.50;;;;;;;22.60;48.69;101208.88;21026928;28;20110;-59
2023/01/05 23:39:26;;;;;;;18.25;4.47;;;;;;;22.47;48.44;101232.63;21015534;28;20048;-59
2023/01/05 23:49:27;;;;;;;22.15;4.22;;;;;;;22.52;48.33;101261.34;21043431;28;20036;-59
2023/01/05 23:59:29;;;;;;;18.98;4.30;;;;;;;22.37;48.64;101252.19;21059044;28;20114;-59
